CYHS weather

Hanover / Saugeen Municipal Airport
Hanover, Ontario, Canada

Public forecast

Using degrees Celsius for public forecast. Weather courtesy of forecast.io.

METAR (pilot weather report)

Closest report is Wiarton Airport, 35.3 nm (65.4 km) N. Retrieved 2019/04/21 16:00 UTC (12 minutes ago):

CYVV 211600Z 27006KT 240V310 15SM FEW008 BKN070 11/05 A3001 RMK CF1AC7 CF TR SLP168

TAF (pilot weather forecast)

Closest forecast is Wiarton Airport, 35.3 nm (65.4 km) N. Retrieved 2019/04/21 14:00 UTC (2 hours ago):

TAF CYVV 211338Z 2114/2123 VRB03KT P6SM SCT070 TEMPO 2114/2118 BKN070 FM211800 30006KT P6SM BKN070 BECMG 2121/2123 VRB03KT RMK NXT FCST BY 212000Z